createdAt,value
2019-05-05T00:00:49.801Z,79.70
2019-05-05T00:03:24.994Z,79.70
2019-05-05T00:05:51.908Z,80.30
2019-05-05T00:08:19.635Z,80.40
2019-05-05T00:10:58.383Z,80.50
2019-05-05T00:13:35.455Z,80.60
2019-05-05T00:16:15.851Z,81.10
2019-05-05T00:18:42.480Z,80.70
2019-05-05T00:21:09.883Z,81.30
2019-05-05T00:23:36.503Z,80.60
2019-05-05T00:26:04.423Z,81.30
2019-05-05T00:28:31.219Z,81.90
2019-05-05T00:30:57.877Z,82.10
2019-05-05T00:33:25.010Z,83.00
2019-05-05T00:35:51.905Z,83.50
2019-05-05T00:38:18.545Z,83.80
2019-05-05T00:40:45.468Z,84.50
2019-05-05T00:43:12.151Z,86.10
2019-05-05T00:45:40.071Z,86.50
2019-05-05T00:48:14.744Z,87.10
2019-05-05T00:50:41.637Z,86.70
2019-05-05T00:53:08.489Z,86.10
2019-05-05T00:55:35.118Z,85.30
2019-05-05T00:58:01.835Z,84.90
2019-05-05T01:00:45.748Z,85.70
2019-05-05T01:03:15.127Z,86.30
2019-05-05T01:05:50.504Z,86.30
2019-05-05T01:08:19.779Z,87.10
2019-05-05T01:10:46.634Z,87.30
2019-05-05T01:13:15.185Z,87.80
2019-05-05T01:15:41.964Z,87.80
2019-05-05T01:18:08.693Z,88.60
2019-05-05T01:20:35.656Z,87.60
2019-05-05T01:23:04.295Z,87.90
2019-05-05T01:25:30.955Z,88.60
2019-05-05T01:27:57.592Z,88.90
2019-05-05T01:30:28.519Z,88.00
2019-05-05T01:33:00.517Z,88.70
2019-05-05T01:35:27.108Z,88.60
2019-05-05T01:38:02.158Z,88.80
2019-05-05T01:40:48.503Z,89.30
2019-05-05T01:43:15.237Z,90.30
2019-05-05T01:45:41.927Z,90.50
2019-05-05T01:48:08.531Z,91.20
2019-05-05T01:50:35.269Z,90.90
2019-05-05T01:53:01.934Z,92.40
2019-05-05T01:55:28.673Z,92.30
2019-05-05T01:57:55.578Z,92.80
2019-05-05T02:00:22.201Z,93.50
2019-05-05T02:02:48.895Z,94.20
2019-05-05T02:05:15.585Z,95.00
2019-05-05T02:07:44.273Z,95.10
2019-05-05T02:10:11.736Z,94.90
2019-05-05T02:12:38.444Z,94.30
2019-05-05T02:15:05.889Z,95.70
2019-05-05T02:17:52.247Z,96.10
2019-05-05T02:20:39.290Z,96.10
2019-05-05T02:23:05.996Z,95.40
2019-05-05T02:25:34.432Z,95.90
2019-05-05T02:28:01.331Z,95.60
2019-05-05T02:30:38.769Z,94.90
2019-05-05T02:33:08.864Z,96.10
2019-05-05T02:35:35.447Z,96.40
2019-05-05T02:38:02.164Z,97.00
2019-05-05T02:40:29.407Z,97.00
2019-05-05T02:42:56.214Z,97.10
2019-05-05T02:45:44.180Z,99.00
2019-05-05T02:48:15.324Z,99.60
2019-05-05T02:51:00.156Z,99.80
2019-05-05T02:53:24.743Z,99.90
2019-05-05T02:55:54.733Z,99.90
2019-05-05T02:58:24.378Z,99.90
2019-05-05T03:01:14.229Z,99.80
2019-05-05T03:03:41.382Z,99.90
2019-05-05T03:06:09.050Z,99.90
2019-05-05T03:08:38.921Z,99.90
2019-05-05T03:11:05.954Z,99.90
2019-05-05T03:13:34.831Z,99.90
2019-05-05T03:16:16.153Z,99.90
2019-05-05T03:18:43.976Z,99.90
2019-05-05T03:21:11.120Z,99.90
2019-05-05T03:23:38.356Z,99.90
2019-05-05T03:26:05.797Z,99.90
2019-05-05T03:28:43.847Z,99.90
2019-05-05T03:31:15.126Z,99.90
2019-05-05T03:33:40.745Z,99.90
2019-05-05T03:36:13.845Z,99.90
2019-05-05T03:38:41.177Z,99.90
2019-05-05T03:41:13.580Z,99.90
2019-05-05T03:44:01.284Z,99.90
2019-05-05T03:46:28.325Z,99.90
2019-05-05T03:48:54.904Z,99.90
2019-05-05T03:51:24.232Z,99.90
2019-05-05T03:53:50.761Z,99.90
2019-05-05T03:56:17.549Z,99.90
2019-05-05T03:58:44.842Z,99.90
2019-05-05T04:01:49.623Z,99.90
2019-05-05T04:04:26.263Z,99.90
2019-05-05T04:06:54.053Z,99.90
2019-05-05T04:09:21.135Z,99.90
2019-05-05T04:11:47.874Z,99.90
2019-05-05T04:14:14.784Z,99.90
2019-05-05T04:17:03.826Z,99.90
2019-05-05T04:19:31.562Z,99.90
2019-05-05T04:21:58.243Z,99.90
2019-05-05T04:24:24.856Z,99.90
2019-05-05T04:26:51.568Z,99.90
2019-05-05T04:29:18.201Z,99.90
2019-05-05T04:31:44.887Z,99.90
2019-05-05T04:34:13.406Z,99.90
2019-05-05T04:36:40.004Z,99.90
2019-05-05T04:39:06.789Z,99.90
2019-05-05T04:41:33.887Z,99.90
2019-05-05T04:44:03.893Z,99.90
2019-05-05T04:46:30.253Z,99.90
2019-05-05T04:49:03.858Z,99.90
2019-05-05T04:51:47.698Z,99.90
2019-05-05T04:54:33.521Z,99.00
2019-05-05T04:57:00.252Z,99.00
2019-05-05T04:59:26.935Z,98.30
2019-05-05T05:01:56.639Z,96.90
2019-05-05T05:04:30.912Z,93.50
2019-05-05T05:06:58.152Z,84.50
2019-05-05T05:09:24.970Z,76.30
2019-05-05T05:11:51.616Z,71.00
2019-05-05T05:14:18.380Z,66.40
2019-05-05T05:16:45.996Z,64.90
2019-05-05T05:19:13.793Z,63.80
2019-05-05T05:21:40.978Z,64.30
2019-05-05T05:24:07.680Z,63.30
2019-05-05T05:26:34.305Z,68.50
2019-05-05T05:29:02.021Z,71.60
2019-05-05T05:31:28.723Z,74.80
2019-05-05T05:33:55.444Z,75.20
2019-05-05T05:36:22.077Z,75.50
2019-05-05T05:38:51.206Z,76.90
2019-05-05T05:41:37.517Z,76.90
2019-05-05T05:44:15.508Z,76.90
2019-05-05T05:46:49.247Z,77.40
2019-05-05T05:49:26.927Z,77.40
2019-05-05T05:51:53.918Z,76.40
2019-05-05T05:54:20.511Z,76.50
2019-05-05T05:56:47.344Z,77.00
2019-05-05T05:59:14.167Z,74.60
2019-05-05T06:01:40.867Z,73.50
2019-05-05T06:04:07.497Z,71.40
2019-05-05T06:06:34.640Z,70.10
2019-05-05T06:09:01.412Z,69.30
2019-05-05T06:11:28.041Z,67.10
2019-05-05T06:13:54.669Z,66.40
2019-05-05T06:16:23.462Z,65.00
2019-05-05T06:18:50.203Z,63.70
2019-05-05T06:21:17.095Z,59.80
2019-05-05T06:23:43.901Z,55.60
2019-05-05T06:26:10.640Z,51.90
2019-05-05T06:28:37.292Z,49.40
2019-05-05T06:31:04.816Z,47.90
2019-05-05T06:33:31.987Z,46.40
2019-05-05T06:35:58.588Z,46.20
2019-05-05T06:38:26.209Z,44.90
2019-05-05T06:41:04.202Z,43.60
2019-05-05T06:43:40.264Z,43.20
2019-05-05T06:46:08.256Z,43.10
2019-05-05T06:48:34.881Z,43.30
2019-05-05T06:51:03.823Z,42.20
2019-05-05T06:53:30.096Z,40.80
2019-05-05T06:55:56.775Z,40.10
2019-05-05T06:58:24.169Z,39.70
2019-05-05T07:00:51.024Z,39.80
2019-05-05T07:03:17.664Z,39.30
2019-05-05T07:05:44.296Z,38.30
2019-05-05T07:08:10.995Z,37.90
2019-05-05T07:10:37.611Z,36.90
2019-05-05T07:13:04.986Z,37.20
2019-05-05T07:15:31.820Z,37.80
2019-05-05T07:17:58.431Z,36.50
2019-05-05T07:20:25.053Z,36.00
2019-05-05T07:23:01.348Z,34.60
2019-05-05T07:25:20.317Z,33.80
2019-05-05T07:27:46.959Z,32.80
2019-05-05T07:30:14.004Z,33.10
2019-05-05T07:32:40.833Z,33.80
2019-05-05T07:35:26.349Z,33.10
2019-05-05T07:37:53.860Z,31.30
2019-05-05T07:40:20.937Z,30.20
2019-05-05T07:42:47.564Z,31.00
2019-05-05T07:45:22.615Z,30.80
2019-05-05T07:47:43.728Z,31.80
2019-05-05T07:50:24.905Z,31.20
2019-05-05T07:52:39.345Z,30.90
2019-05-05T07:55:06.413Z,30.40
2019-05-05T07:57:34.157Z,29.50
2019-05-05T08:00:01.286Z,30.20
2019-05-05T08:02:28.241Z,29.80
2019-05-05T08:04:54.921Z,28.10
2019-05-05T08:07:21.560Z,28.30
2019-05-05T08:09:48.163Z,28.70
2019-05-05T08:12:15.016Z,28.70
2019-05-05T08:14:41.676Z,28.50
2019-05-05T08:17:35.058Z,27.30
2019-05-05T08:20:08.331Z,28.40
2019-05-05T08:22:35.072Z,26.70
2019-05-05T08:25:34.461Z,27.40
2019-05-05T08:27:59.972Z,28.60
2019-05-05T08:30:44.925Z,27.80
2019-05-05T08:33:13.929Z,26.60
2019-05-05T08:35:40.224Z,25.10
2019-05-05T08:38:06.868Z,25.40
2019-05-05T08:40:34.578Z,25.70
2019-05-05T08:43:01.525Z,25.30
2019-05-05T08:45:28.237Z,24.40
2019-05-05T08:47:55.346Z,23.20
2019-05-05T08:50:24.794Z,24.60
2019-05-05T08:52:50.652Z,27.90
2019-05-05T08:55:17.564Z,26.00
2019-05-05T08:57:44.723Z,25.40
2019-05-05T09:00:13.840Z,23.90
2019-05-05T09:02:40.635Z,22.80
2019-05-05T09:05:07.536Z,23.20
2019-05-05T09:07:34.167Z,24.20
2019-05-05T09:10:01.199Z,24.30
2019-05-05T09:12:27.963Z,23.20
2019-05-05T09:14:55.742Z,23.90
2019-05-05T09:17:24.390Z,25.20
2019-05-05T09:19:50.996Z,24.90
2019-05-05T09:22:17.758Z,24.30
2019-05-05T09:24:53.654Z,23.90
2019-05-05T09:27:30.631Z,23.00
2019-05-05T09:29:57.247Z,25.00
2019-05-05T09:32:24.344Z,23.50
2019-05-05T09:34:51.223Z,23.20
2019-05-05T09:37:18.254Z,22.20
2019-05-05T09:39:44.899Z,21.80
2019-05-05T09:42:14.301Z,22.40
2019-05-05T09:44:40.940Z,23.50
2019-05-05T09:47:07.687Z,24.00
2019-05-05T09:49:34.399Z,23.20
2019-05-05T09:52:01.093Z,21.50
2019-05-05T09:54:28.099Z,22.80
2019-05-05T09:56:54.743Z,24.40
2019-05-05T09:59:23.854Z,24.80
2019-05-05T10:01:50.305Z,25.30
2019-05-05T10:04:17.278Z,27.80
2019-05-05T10:06:47.730Z,25.40
2019-05-05T10:09:13.741Z,25.20
2019-05-05T10:11:41.089Z,25.00
2019-05-05T10:14:10.280Z,26.90
2019-05-05T10:16:36.996Z,27.40
2019-05-05T10:19:04.560Z,28.70
2019-05-05T10:21:33.781Z,28.00
2019-05-05T10:24:04.550Z,27.70
2019-05-05T10:26:31.609Z,27.70
2019-05-05T10:29:01.212Z,27.10
2019-05-05T10:31:28.411Z,27.70
2019-05-05T10:33:59.263Z,28.20
2019-05-05T10:36:26.195Z,27.50
2019-05-05T10:38:58.308Z,26.40
2019-05-05T10:41:25.249Z,25.20
2019-05-05T10:43:54.042Z,23.30
2019-05-05T10:46:20.706Z,23.00
2019-05-05T10:48:47.374Z,25.10
2019-05-05T10:51:14.011Z,26.10
2019-05-05T10:53:40.744Z,26.30
2019-05-05T10:56:07.470Z,27.70
2019-05-05T10:58:34.209Z,27.30
2019-05-05T11:01:01.482Z,27.10
2019-05-05T11:03:28.620Z,26.40
2019-05-05T11:05:55.501Z,26.70
2019-05-05T11:08:24.030Z,24.60
2019-05-05T11:10:51.042Z,25.40
2019-05-05T11:13:17.804Z,25.30
2019-05-05T11:15:45.398Z,25.80
2019-05-05T11:18:14.418Z,26.70
2019-05-05T11:20:40.889Z,27.80
2019-05-05T11:23:07.542Z,26.60
2019-05-05T11:25:34.365Z,23.80
2019-05-05T11:28:03.435Z,22.70
2019-05-05T11:30:34.003Z,19.20
2019-05-05T11:33:34.416Z,19.10
2019-05-05T11:36:19.296Z,19.10
2019-05-05T11:38:45.950Z,18.50
2019-05-05T11:41:14.441Z,19.70
2019-05-05T11:43:41.220Z,21.10
2019-05-05T11:46:08.121Z,23.50
2019-05-05T11:48:34.731Z,24.10
2019-05-05T11:51:01.371Z,25.90
2019-05-05T11:53:28.072Z,27.30
2019-05-05T11:55:55.198Z,27.60
2019-05-05T11:58:22.083Z,27.30
2019-05-05T12:00:48.794Z,27.70
2019-05-05T12:03:15.516Z,27.60
2019-05-05T12:05:44.098Z,27.90
2019-05-05T12:08:10.673Z,28.10
2019-05-05T12:11:04.619Z,28.10
2019-05-05T12:13:31.564Z,28.60
2019-05-05T12:15:59.901Z,27.00
2019-05-05T12:18:27.360Z,26.80
2019-05-05T12:20:54.480Z,24.80
2019-05-05T12:23:21.285Z,24.10
2019-05-05T12:26:25.720Z,24.80
2019-05-05T12:28:57.746Z,25.40
2019-05-05T12:31:26.520Z,26.70
2019-05-05T12:33:54.751Z,25.40
2019-05-05T12:36:23.690Z,25.50
2019-05-05T12:38:50.683Z,25.90
2019-05-05T12:41:17.493Z,25.80
2019-05-05T12:43:44.392Z,25.80
2019-05-05T12:46:21.357Z,25.30
2019-05-05T12:48:48.552Z,23.40
2019-05-05T12:51:15.290Z,23.50
2019-05-05T12:53:41.965Z,23.20
2019-05-05T12:56:08.936Z,21.10
2019-05-05T12:58:35.587Z,22.70
2019-05-05T13:01:08.996Z,21.90
2019-05-05T13:03:35.944Z,22.80
2019-05-05T13:06:04.111Z,22.40
2019-05-05T13:08:30.837Z,24.10
2019-05-05T13:10:59.394Z,23.10
2019-05-05T13:13:26.145Z,23.70
2019-05-05T13:16:01.174Z,24.20
2019-05-05T13:18:28.263Z,24.10
2019-05-05T13:21:19.166Z,24.80
2019-05-05T13:23:54.789Z,25.40
2019-05-05T13:26:28.237Z,26.00
2019-05-05T13:28:55.123Z,24.70
2019-05-05T13:31:22.168Z,23.30
2019-05-05T13:33:49.222Z,22.20
2019-05-05T13:36:15.945Z,22.30
2019-05-05T13:38:43.831Z,19.70
2019-05-05T13:41:10.990Z,20.60
2019-05-05T13:43:37.988Z,21.20
2019-05-05T13:46:14.007Z,21.30
2019-05-05T13:48:40.878Z,20.80
2019-05-05T13:51:07.889Z,20.60
2019-05-05T13:53:34.642Z,20.30
2019-05-05T13:56:11.286Z,19.70
2019-05-05T13:58:29.903Z,20.40
2019-05-05T14:00:56.566Z,20.80
2019-05-05T14:03:23.549Z,20.00
2019-05-05T14:05:50.331Z,20.10
2019-05-05T14:08:17.270Z,19.90
2019-05-05T14:10:44.007Z,20.00
2019-05-05T14:13:10.736Z,21.30
2019-05-05T14:15:37.363Z,24.00
2019-05-05T14:18:04.082Z,25.20
2019-05-05T14:20:30.726Z,26.50
2019-05-05T14:22:57.835Z,27.40
2019-05-05T14:25:27.124Z,27.50
2019-05-05T14:27:54.165Z,27.60
2019-05-05T14:30:40.979Z,28.00
2019-05-05T14:33:11.878Z,27.70
2019-05-05T14:36:00.741Z,27.90
2019-05-05T14:38:49.582Z,27.50
2019-05-05T14:41:16.391Z,27.80
2019-05-05T14:43:43.852Z,28.50
2019-05-05T14:46:10.555Z,27.90
2019-05-05T14:48:37.557Z,28.20
2019-05-05T14:51:04.368Z,28.10
2019-05-05T14:53:31.021Z,28.80
2019-05-05T14:55:57.753Z,29.90
2019-05-05T14:58:24.432Z,29.20
2019-05-05T15:00:51.172Z,28.40
2019-05-05T15:03:17.849Z,28.90
2019-05-05T15:05:54.789Z,28.80
2019-05-05T15:08:33.921Z,28.80
2019-05-05T15:11:06.103Z,29.90
2019-05-05T15:13:33.605Z,29.00
2019-05-05T15:16:03.846Z,29.10
2019-05-05T15:18:30.169Z,29.20
2019-05-05T15:20:56.833Z,29.70
2019-05-05T15:23:24.000Z,30.50
2019-05-05T15:25:50.908Z,30.10
2019-05-05T15:28:17.556Z,31.00
2019-05-05T15:30:44.278Z,29.80
2019-05-05T15:33:10.970Z,29.70
2019-05-05T15:35:37.562Z,29.70
2019-05-05T15:38:04.551Z,29.30
2019-05-05T15:40:31.328Z,29.80
2019-05-05T15:42:58.061Z,29.80
2019-05-05T15:45:24.979Z,29.90
2019-05-05T15:47:54.021Z,30.10
2019-05-05T15:50:20.845Z,29.40
2019-05-05T15:52:47.471Z,30.00
2019-05-05T15:55:14.522Z,29.90
2019-05-05T15:57:41.191Z,31.00
2019-05-05T16:00:09.135Z,29.80
2019-05-05T16:02:36.193Z,29.90
2019-05-05T16:05:04.534Z,30.70
2019-05-05T16:07:33.282Z,29.90
2019-05-05T16:09:59.808Z,30.10
2019-05-05T16:12:34.213Z,30.30
2019-05-05T16:15:13.807Z,31.00
2019-05-05T16:17:46.206Z,29.70
2019-05-05T16:20:25.450Z,30.20
2019-05-05T16:23:10.842Z,30.80
2019-05-05T16:25:38.287Z,31.30
2019-05-05T16:28:05.583Z,31.10
2019-05-05T16:30:33.848Z,30.30
2019-05-05T16:33:00.723Z,30.70
2019-05-05T16:35:27.485Z,30.00
2019-05-05T16:37:54.110Z,30.10
2019-05-05T16:40:23.248Z,29.50
2019-05-05T16:42:49.471Z,29.50
2019-05-05T16:45:16.766Z,29.80
2019-05-05T16:47:44.320Z,30.10
2019-05-05T16:50:11.331Z,30.50
2019-05-05T16:52:43.453Z,30.30
2019-05-05T16:55:23.763Z,30.20
2019-05-05T16:57:50.519Z,29.70
2019-05-05T17:00:17.695Z,29.60
2019-05-05T17:02:44.528Z,29.90
2019-05-05T17:05:13.702Z,31.30
2019-05-05T17:07:40.506Z,31.20
2019-05-05T17:10:07.421Z,31.10
2019-05-05T17:12:34.311Z,31.40
2019-05-05T17:15:19.768Z,31.80
2019-05-05T17:17:55.141Z,31.40
2019-05-05T17:20:24.560Z,31.60
2019-05-05T17:22:57.453Z,31.90
2019-05-05T17:25:24.704Z,32.10
2019-05-05T17:27:51.721Z,32.40
2019-05-05T17:30:19.137Z,32.20
2019-05-05T17:32:45.731Z,31.80
2019-05-05T17:35:14.360Z,32.10
2019-05-05T17:37:41.088Z,32.40
2019-05-05T17:40:15.945Z,33.30
2019-05-05T17:42:51.035Z,33.10
2019-05-05T17:45:27.802Z,33.30
2019-05-05T17:48:01.392Z,33.40
2019-05-05T17:50:46.347Z,34.40
2019-05-05T17:53:30.635Z,33.60
2019-05-05T17:55:57.786Z,34.10
2019-05-05T17:58:26.190Z,34.70
2019-05-05T18:00:56.533Z,34.20
2019-05-05T18:03:23.241Z,34.60
2019-05-05T18:06:07.571Z,34.70
2019-05-05T18:08:40.901Z,35.20
2019-05-05T18:11:18.569Z,35.30
2019-05-05T18:13:49.309Z,35.20
2019-05-05T18:16:17.043Z,35.70
2019-05-05T18:18:44.463Z,35.80
2019-05-05T18:21:11.296Z,35.90
2019-05-05T18:23:37.965Z,36.20
2019-05-05T18:26:04.984Z,36.60
2019-05-05T18:28:31.575Z,37.00
2019-05-05T18:30:58.196Z,37.10
2019-05-05T18:33:24.782Z,37.10
2019-05-05T18:35:53.906Z,37.00
2019-05-05T18:38:20.579Z,37.00
2019-05-05T18:40:47.932Z,37.00
2019-05-05T18:43:24.351Z,37.40
2019-05-05T18:46:00.655Z,37.40
2019-05-05T18:48:27.255Z,37.80
2019-05-05T18:50:54.217Z,37.80
2019-05-05T18:53:20.980Z,38.00
2019-05-05T18:55:47.764Z,38.30
2019-05-05T18:58:26.963Z,38.10
2019-05-05T19:00:51.748Z,38.40
2019-05-05T19:03:24.925Z,38.50
2019-05-05T19:05:59.112Z,38.20
2019-05-05T19:08:29.020Z,38.40
2019-05-05T19:10:55.813Z,38.50
2019-05-05T19:13:24.261Z,38.70
2019-05-05T19:15:51.436Z,38.90
2019-05-05T19:18:18.079Z,39.20
2019-05-05T19:20:54.179Z,39.10
2019-05-05T19:23:21.049Z,39.30
2019-05-05T19:25:47.664Z,39.20
2019-05-05T19:28:14.379Z,39.30
2019-05-05T19:30:41.004Z,39.50
2019-05-05T19:33:07.625Z,39.40
2019-05-05T19:35:41.930Z,39.70
2019-05-05T19:38:04.904Z,39.40
2019-05-05T19:40:33.807Z,40.40
2019-05-05T19:43:00.349Z,39.60
2019-05-05T19:45:27.040Z,39.10
2019-05-05T19:47:53.667Z,40.30
2019-05-05T19:50:33.853Z,40.30
2019-05-05T19:53:00.499Z,40.70
2019-05-05T19:55:27.107Z,40.80
2019-05-05T19:57:54.116Z,41.50
2019-05-05T20:00:23.405Z,41.80
2019-05-05T20:03:01.319Z,41.90
2019-05-05T20:05:18.656Z,42.60
2019-05-05T20:07:45.239Z,42.80
2019-05-05T20:10:14.542Z,42.60
2019-05-05T20:12:43.831Z,42.90
2019-05-05T20:15:14.734Z,43.00
2019-05-05T20:17:41.494Z,43.70
2019-05-05T20:20:08.541Z,43.90
2019-05-05T20:22:35.228Z,44.30
2019-05-05T20:25:04.258Z,44.40
2019-05-05T20:27:30.999Z,44.90
2019-05-05T20:29:57.710Z,45.00
2019-05-05T20:32:30.941Z,45.60
2019-05-05T20:35:16.072Z,45.70
2019-05-05T20:37:46.425Z,46.10
2019-05-05T20:40:15.111Z,46.30
2019-05-05T20:42:41.857Z,46.60
2019-05-05T20:45:30.083Z,46.00
2019-05-05T20:47:56.914Z,46.40
2019-05-05T20:50:24.727Z,46.50
2019-05-05T20:52:53.577Z,46.20
2019-05-05T20:55:22.054Z,46.80
2019-05-05T20:57:48.967Z,46.60
2019-05-05T21:00:17.535Z,46.40
2019-05-05T21:02:44.270Z,46.60
2019-05-05T21:05:12.048Z,47.20
2019-05-05T21:07:38.668Z,47.10
2019-05-05T21:10:05.512Z,47.40
2019-05-05T21:12:41.749Z,47.90
2019-05-05T21:15:00.661Z,47.60
2019-05-05T21:17:27.346Z,47.50
2019-05-05T21:19:54.092Z,47.40
2019-05-05T21:22:33.991Z,47.30
2019-05-05T21:25:00.815Z,47.30
2019-05-05T21:27:27.767Z,47.30
2019-05-05T21:30:04.048Z,47.40
2019-05-05T21:32:31.423Z,47.00
2019-05-05T21:34:58.440Z,47.60
2019-05-05T21:37:25.215Z,47.50
2019-05-05T21:39:52.384Z,47.50
2019-05-05T21:42:19.242Z,47.10
2019-05-05T21:44:45.877Z,46.80
2019-05-05T21:47:14.149Z,46.50
2019-05-05T21:49:41.027Z,46.30
2019-05-05T21:52:23.927Z,46.20
2019-05-05T21:55:01.108Z,45.90
2019-05-05T21:57:53.383Z,45.80
2019-05-05T22:00:38.724Z,46.00
2019-05-05T22:03:05.660Z,46.10
2019-05-05T22:05:33.516Z,46.50
2019-05-05T22:08:00.305Z,46.60
2019-05-05T22:10:27.008Z,47.40
2019-05-05T22:12:54.199Z,47.70
2019-05-05T22:15:20.957Z,48.50
2019-05-05T22:17:47.592Z,48.80
2019-05-05T22:20:21.006Z,49.50
2019-05-05T22:22:48.423Z,50.30
2019-05-05T22:25:15.153Z,50.80
2019-05-05T22:27:43.995Z,51.20
2019-05-05T22:30:10.688Z,51.70
2019-05-05T22:32:37.448Z,52.20
2019-05-05T22:35:04.341Z,52.70
2019-05-05T22:37:31.181Z,53.00
2019-05-05T22:39:57.775Z,53.00
2019-05-05T22:42:24.704Z,53.30
2019-05-05T22:44:51.375Z,53.80
2019-05-05T22:47:18.375Z,53.80
2019-05-05T22:49:44.993Z,53.60
2019-05-05T22:52:11.716Z,53.30
2019-05-05T22:54:38.343Z,53.60
2019-05-05T22:57:04.974Z,54.00
2019-05-05T22:59:31.788Z,54.50
2019-05-05T23:01:58.832Z,54.60
2019-05-05T23:04:35.093Z,54.80
2019-05-05T23:07:05.832Z,55.10
2019-05-05T23:09:32.611Z,55.30
2019-05-05T23:11:59.208Z,55.60
2019-05-05T23:14:28.960Z,55.90
2019-05-05T23:17:04.711Z,56.00
2019-05-05T23:19:37.105Z,56.30
2019-05-05T23:22:15.741Z,56.30
2019-05-05T23:24:47.892Z,56.20
2019-05-05T23:27:34.323Z,56.40
2019-05-05T23:30:01.488Z,56.90
2019-05-05T23:32:28.120Z,57.50
2019-05-05T23:34:54.786Z,58.00
2019-05-05T23:37:21.443Z,58.20
2019-05-05T23:39:48.096Z,58.50
2019-05-05T23:42:15.224Z,58.90
2019-05-05T23:44:41.908Z,59.00
2019-05-05T23:47:08.524Z,59.10
2019-05-05T23:49:35.304Z,58.80
2019-05-05T23:52:04.308Z,59.60
2019-05-05T23:54:30.856Z,59.80
2019-05-05T23:56:57.439Z,60.30
2019-05-05T23:59:24.317Z,60.50
